Time;durP1;ratioP1;P1;durP2;ratioP2;P2;SDS_P1;SDS_P2;PMS_P1;PMS_P2;Temp;Humidity;BMP_temperature;BMP_pressure;BME280_temperature;BME280_humidity;BME280_pressure;Samples;Min_cycle;Max_cycle;Signal;HPM_P1;HPM_P2
2022/09/26 00:02:23;;;;;;;7.20;4.70;;;;;;;10.39;92.42;100808.22;5267095;28;20025;-78
2022/09/26 00:04:54;;;;;;;7.47;5.13;;;;;;;10.43;92.56;100811.66;5264822;28;20029;-78
2022/09/26 00:07:26;;;;;;;9.67;4.40;;;;;;;10.30;92.72;100808.28;5266250;28;20047;-77
2022/09/26 00:09:57;;;;;;;7.80;4.80;;;;;;;10.41;92.90;100797.78;5265771;28;20029;-78
2022/09/26 00:12:28;;;;;;;6.87;4.67;;;;;;;10.40;92.53;100796.94;5265508;28;20085;-77
2022/09/26 00:15:00;;;;;;;9.57;4.70;;;;;;;10.37;93.14;100788.28;5264473;28;20052;-79
2022/09/26 00:17:31;;;;;;;9.83;4.97;;;;;;;10.37;93.29;100791.75;5265791;28;20021;-77
2022/09/26 00:20:04;;;;;;;8.13;4.60;;;;;;;10.35;93.53;100783.09;5266115;28;20376;-78
2022/09/26 00:22:36;;;;;;;8.18;4.97;;;;;;;10.37;93.15;100776.13;5265298;28;20029;-78
2022/09/26 00:25:07;;;;;;;10.50;4.90;;;;;;;10.38;93.37;100775.25;5265238;28;20461;-78
2022/09/26 00:27:39;;;;;;;7.40;4.50;;;;;;;10.34;93.48;100775.31;5265224;28;20048;-77
2022/09/26 00:30:10;;;;;;;12.10;5.03;;;;;;;10.34;93.27;100770.09;5265036;28;20028;-78
2022/09/26 00:32:42;;;;;;;8.13;4.93;;;;;;;10.40;93.84;100765.66;5265694;28;20037;-78
2022/09/26 00:35:13;;;;;;;7.40;4.93;;;;;;;10.40;93.82;100759.59;5264931;28;20029;-78
2022/09/26 00:37:44;;;;;;;9.40;5.00;;;;;;;10.35;93.66;100754.44;5264711;28;20025;-78
2022/09/26 00:40:16;;;;;;;10.97;5.43;;;;;;;10.39;93.83;100755.25;5264964;28;20025;-78
2022/09/26 00:42:47;;;;;;;11.73;5.60;;;;;;;10.37;93.74;100751.81;5264898;28;20029;-79
2022/09/26 00:45:20;;;;;;;8.57;4.57;;;;;;;10.38;93.63;100748.31;5264911;28;20092;-78
2022/09/26 00:47:58;;;;;;;7.25;4.55;;;;;;;10.38;93.49;100753.53;5265330;28;20036;-78
2022/09/26 00:50:40;;;;;;;9.73;5.35;;;;;;;10.36;93.78;100737.91;5264721;28;20033;-77
2022/09/26 00:53:17;;;;;;;9.60;5.28;;;;;;;10.37;93.46;100737.03;5265043;28;20029;-81
2022/09/26 00:55:58;;;;;;;7.53;4.65;;;;;;;10.40;93.16;100733.53;5266940;28;20024;-78
2022/09/26 00:58:37;;;;;;;11.43;4.93;;;;;;;10.42;93.21;100730.88;5281079;28;20055;-78
2022/09/26 01:01:09;;;;;;;7.57;4.82;;;;;;;10.47;93.17;100727.34;5266107;28;20108;-77
2022/09/26 01:03:43;;;;;;;9.47;4.53;;;;;;;10.47;93.08;100724.75;5264568;28;20124;-78
2022/09/26 01:06:15;;;;;;;9.35;4.55;;;;;;;10.49;93.09;100715.16;5262872;28;20048;-78
2022/09/26 01:08:52;;;;;;;8.07;4.32;;;;;;;10.49;93.04;100707.34;5264258;28;20029;-77
2022/09/26 01:11:23;;;;;;;9.68;5.22;;;;;;;10.47;92.97;100698.69;5263991;28;20079;-76
2022/09/26 01:13:56;;;;;;;8.73;4.57;;;;;;;10.49;93.24;100699.50;5264010;28;20045;-77
2022/09/26 01:16:27;;;;;;;;;;;;;;;10.61;92.24;100698.50;5264090;28;20076;-78
2022/09/26 01:19:04;;;;;;;7.30;4.18;;;;;;;10.53;92.55;100696.00;5264211;28;19971;-78
2022/09/26 01:22:01;;;;;;;10.38;4.05;;;;;;;10.54;92.61;100684.66;5264019;28;20040;-79
2022/09/26 01:24:39;;;;;;;8.95;4.60;;;;;;;10.58;91.92;100686.38;5264315;28;20059;-78
2022/09/26 01:27:13;;;;;;;11.30;4.53;;;;;;;10.56;92.33;100677.72;5264669;28;20071;-79
2022/09/26 01:30:00;;;;;;;9.98;4.40;;;;;;;10.62;92.25;100670.69;5263433;28;20379;-78
2022/09/26 01:32:48;;;;;;;8.82;3.80;;;;;;;10.60;92.26;100668.09;5264000;28;20087;-77
2022/09/26 01:35:45;;;;;;;7.88;4.60;;;;;;;10.60;92.15;100655.06;5263422;28;20063;-77
2022/09/26 01:38:35;;;;;;;6.75;4.45;;;;;;;10.59;92.04;100648.13;5264198;28;20369;-79
2022/09/26 01:41:13;;;;;;;7.22;4.47;;;;;;;10.60;91.99;100639.41;5263899;28;20061;-78
2022/09/26 01:44:07;;;;;;;8.00;4.13;;;;;;;10.57;91.92;100636.84;5263921;28;20029;-78
2022/09/26 01:46:46;;;;;;;7.13;3.88;;;;;;;10.57;91.66;100631.66;5264205;28;20029;-79
2022/09/26 01:49:26;;;;;;;7.90;3.75;;;;;;;10.60;91.57;100625.53;5263976;28;20070;-80
2022/09/26 01:52:01;;;;;;;11.30;3.78;;;;;;;10.56;91.27;100619.50;5264761;28;20040;-79
2022/09/26 01:54:48;;;;;;;8.32;3.97;;;;;;;10.51;91.28;100616.09;5274391;28;20029;-78
2022/09/26 01:57:27;;;;;;;6.78;3.60;;;;;;;10.50;91.14;100615.25;5274260;28;20028;-79
2022/09/26 02:00:04;;;;;;;8.02;3.75;;;;;;;10.48;91.29;100598.78;5263798;28;20094;-78
2022/09/26 02:02:40;;;;;;;6.95;3.55;;;;;;;10.48;90.95;100590.06;5264054;28;20036;-79
2022/09/26 02:05:19;;;;;;;5.93;3.30;;;;;;;10.48;91.16;100592.69;5263846;28;20044;-79
2022/09/26 02:07:59;;;;;;;10.38;4.25;;;;;;;10.49;90.01;100584.00;5263519;28;20131;-80
2022/09/26 02:10:39;;;;;;;7.97;3.58;;;;;;;10.42;90.22;100574.53;5264016;28;20159;-80
2022/09/26 02:13:20;;;;;;;7.63;3.47;;;;;;;10.43;90.53;100569.28;5263643;28;20102;-79
2022/09/26 02:15:56;;;;;;;9.05;3.28;;;;;;;10.43;89.73;100565.84;5263255;28;20079;-78
2022/09/26 02:18:41;;;;;;;8.90;3.53;;;;;;;10.38;90.38;100565.91;5263179;28;20025;-79
2022/09/26 02:21:22;;;;;;;6.47;3.10;;;;;;;10.39;89.82;100560.69;5263505;28;20028;-79
2022/09/26 02:23:54;;;;;;;7.20;3.47;;;;;;;10.34;89.92;100556.44;5263048;28;20421;-79
2022/09/26 02:26:25;;;;;;;8.33;3.30;;;;;;;10.38;89.86;100553.75;5262635;28;20112;-79
2022/09/26 02:28:57;;;;;;;7.83;3.87;;;;;;;10.35;90.00;100543.38;5263242;28;20375;-79
2022/09/26 02:31:34;;;;;;;9.00;4.00;;;;;;;10.35;90.57;100543.38;5263130;28;20079;-78
2022/09/26 02:34:05;;;;;;;9.02;3.92;;;;;;;10.38;90.14;100537.25;5262873;28;20488;-78
2022/09/26 02:36:37;;;;;;;7.63;3.27;;;;;;;10.34;90.60;100533.00;5262555;28;20060;-79
2022/09/26 02:39:11;;;;;;;6.63;3.40;;;;;;;10.30;90.90;100518.25;5262824;28;20380;-78
2022/09/26 02:42:04;;;;;;;10.05;3.65;;;;;;;10.31;90.27;100526.03;5260655;28;20043;-81
2022/09/26 02:45:14;;;;;;;;;;;;;;;10.35;89.89;100521.66;5263242;28;20033;-80
2022/09/26 02:48:04;;;;;;;9.63;3.17;;;;;;;10.29;90.20;100529.53;5239405;28;20016;-79
2022/09/26 02:51:07;;;;;;;9.70;3.13;;;;;;;10.30;90.20;100531.28;5240180;28;20029;-78
2022/09/26 02:53:56;;;;;;;7.28;2.90;;;;;;;10.31;89.83;100514.75;5260363;28;20407;-80
2022/09/26 02:56:30;;;;;;;9.82;3.35;;;;;;;10.26;89.67;100507.03;5262693;28;20486;-79
2022/09/26 02:59:20;;;;;;;7.03;3.22;;;;;;;10.28;89.67;100501.78;5262891;28;20078;-78
2022/09/26 03:02:26;;;;;;;10.75;3.13;;;;;;;10.30;89.12;100500.84;5263047;28;20431;-80
2022/09/26 03:05:03;;;;;;;8.40;2.97;;;;;;;10.26;88.80;100495.75;5263117;28;20033;-78
2022/09/26 03:07:42;;;;;;;9.25;2.97;;;;;;;10.27;88.89;100487.91;5262896;28;20112;-79
2022/09/26 03:10:14;;;;;;;7.93;2.83;;;;;;;10.27;88.52;100490.50;5262592;28;20083;-79
2022/09/26 03:12:48;;;;;;;10.55;3.08;;;;;;;10.32;88.25;100480.00;5262323;28;20037;-78
2022/09/26 03:15:21;;;;;;;6.93;2.70;;;;;;;10.32;88.07;100480.91;5263245;28;20041;-79
2022/09/26 03:17:55;;;;;;;6.45;2.90;;;;;;;10.31;87.56;100475.69;5262419;28;20044;-81
2022/09/26 03:20:26;;;;;;;8.20;2.70;;;;;;;10.31;87.43;100473.06;5262351;28;20512;-79
2022/09/26 03:22:58;;;;;;;9.37;3.13;;;;;;;10.27;87.92;100469.66;5262423;28;20029;-79
2022/09/26 03:25:30;;;;;;;7.40;3.70;;;;;;;10.27;87.57;100459.25;5261187;28;20567;-76
2022/09/26 03:28:01;;;;;;;8.25;3.42;;;;;;;10.25;87.30;100462.75;5262321;28;20147;-77
2022/09/26 03:30:33;;;;;;;5.97;2.63;;;;;;;10.26;87.03;100457.53;5261935;28;20056;-78
2022/09/26 03:33:05;;;;;;;6.23;2.60;;;;;;;10.29;86.80;100456.59;5262557;28;20064;-78
2022/09/26 03:35:36;;;;;;;6.80;2.50;;;;;;;10.28;86.71;100447.94;5262774;28;20061;-78
2022/09/26 03:38:08;;;;;;;6.80;3.10;;;;;;;10.27;86.91;100438.41;5262198;28;20076;-77
2022/09/26 03:40:40;;;;;;;7.10;2.43;;;;;;;10.27;86.56;100441.00;5262566;28;20523;-80
2022/09/26 03:43:12;;;;;;;8.93;2.83;;;;;;;10.28;86.40;100431.44;5277669;28;20094;-77
2022/09/26 03:45:43;;;;;;;9.30;3.27;;;;;;;10.28;86.89;100421.03;5262347;28;20414;-77
2022/09/26 03:48:15;;;;;;;9.47;2.73;;;;;;;10.27;86.67;100412.34;5269647;28;20029;-78
2022/09/26 03:50:47;;;;;;;4.80;2.17;;;;;;;10.28;87.19;100423.63;5268648;28;20551;-77
2022/09/26 03:53:18;;;;;;;7.33;3.43;;;;;;;10.17;88.28;100424.66;5265027;28;20409;-77
2022/09/26 03:55:49;;;;;;;10.03;2.90;;;;;;;10.11;88.26;100418.69;5266149;28;20025;-79
2022/09/26 03:58:21;;;;;;;9.47;2.67;;;;;;;10.05;89.04;100411.84;5265968;28;20033;-76
2022/09/26 04:00:52;;;;;;;6.47;2.43;;;;;;;10.03;89.84;100403.22;5265829;28;20052;-77
2022/09/26 04:03:23;;;;;;;9.43;2.97;;;;;;;10.03;90.14;100393.66;5266076;28;20476;-76
2022/09/26 04:05:55;;;;;;;10.97;3.30;;;;;;;10.00;90.86;100383.28;5265504;28;20052;-77
2022/09/26 04:08:27;;;;;;;11.07;3.37;;;;;;;10.00;91.49;100385.03;5265759;28;20052;-77
2022/09/26 04:11:03;;;;;;;8.13;3.35;;;;;;;9.95;91.95;100385.13;5265956;28;20029;-77
2022/09/26 04:13:35;;;;;;;7.85;2.63;;;;;;;9.92;92.19;100371.25;5265207;28;20053;-76
2022/09/26 04:16:08;;;;;;;8.77;3.22;;;;;;;9.88;92.65;100370.47;5265503;28;20025;-77
2022/09/26 04:18:39;;;;;;;11.18;2.47;;;;;;;9.92;92.42;100360.84;5265069;28;20071;-77
2022/09/26 04:21:13;;;;;;;12.43;2.77;;;;;;;9.88;92.03;100352.22;5265457;28;20443;-78
2022/09/26 04:23:44;;;;;;;9.32;3.22;;;;;;;9.90;91.71;100344.41;5265342;28;20025;-79
2022/09/26 04:26:18;;;;;;;8.38;3.25;;;;;;;9.92;92.47;100353.03;5265446;28;20033;-79
2022/09/26 04:28:53;;;;;;;11.32;3.40;;;;;;;9.86;92.57;100333.19;5265323;28;20119;-78
2022/09/26 04:31:28;;;;;;;10.45;3.80;;;;;;;9.88;92.19;100334.00;5265336;28;20035;-80
2022/09/26 04:34:00;;;;;;;7.40;3.55;;;;;;;9.89;92.04;100327.09;5263807;28;20037;-81
2022/09/26 04:36:32;;;;;;;7.63;3.23;;;;;;;9.86;92.36;100330.59;5265252;28;20029;-80
2022/09/26 04:39:04;;;;;;;8.70;3.10;;;;;;;9.88;92.85;100320.16;5265557;28;20032;-81
2022/09/26 04:41:36;;;;;;;7.43;2.63;;;;;;;9.86;92.10;100310.59;5266190;28;20303;-81
2022/09/26 04:44:11;;;;;;;7.32;2.30;;;;;;;9.87;91.68;100311.50;5267751;28;20041;-80
2022/09/26 04:46:43;;;;;;;7.03;2.75;;;;;;;9.89;91.46;100301.91;5278760;28;20025;-81
2022/09/26 04:49:14;;;;;;;8.90;3.00;;;;;;;9.89;91.25;100286.28;5272264;28;20068;-81
2022/09/26 04:51:47;;;;;;;8.23;3.40;;;;;;;9.93;91.65;100271.44;5265025;28;20029;-81
2022/09/26 04:54:19;;;;;;;;;;;;;;;9.95;91.19;100269.66;5265214;28;20057;-81
2022/09/26 04:56:50;;;;;;;7.60;2.67;;;;;;;9.92;91.62;100267.13;5264796;28;19967;-80
2022/09/26 04:59:21;;;;;;;6.37;3.47;;;;;;;9.91;91.34;100265.44;5264548;28;20039;-81
2022/09/26 05:01:53;;;;;;;7.07;3.10;;;;;;;9.90;91.28;100255.88;5264542;28;20022;-81
2022/09/26 05:04:25;;;;;;;11.73;3.27;;;;;;;9.89;91.42;100254.19;5263917;28;20100;-82
2022/09/26 05:06:58;;;;;;;8.87;3.03;;;;;;;9.88;91.39;100244.66;5264403;28;20032;-82
2022/09/26 05:09:29;;;;;;;8.73;3.00;;;;;;;9.89;92.03;100246.38;5264364;28;20503;-81
2022/09/26 05:12:01;;;;;;;11.97;4.17;;;;;;;9.91;91.49;100247.19;5264374;28;20065;-82
2022/09/26 05:14:34;;;;;;;11.40;3.13;;;;;;;9.90;91.99;100235.06;5264744;28;20053;-81
2022/09/26 05:17:05;;;;;;;9.10;2.88;;;;;;;9.85;92.53;100224.72;5264183;28;20035;-81
2022/09/26 05:19:36;;;;;;;7.60;3.03;;;;;;;9.80;93.56;100205.75;5264793;28;20032;-80
2022/09/26 05:22:09;;;;;;;6.33;3.40;;;;;;;9.75;93.05;100199.75;5264277;28;20048;-81
2022/09/26 05:27:30;;;;;;;10.05;3.53;;;;;;;9.74;94.23;100211.94;5264394;28;20040;-81
2022/09/26 05:30:02;;;;;;;9.60;4.10;;;;;;;9.77;93.77;100201.47;5264470;28;20033;-81
2022/09/26 05:32:33;;;;;;;11.57;3.80;;;;;;;9.78;93.55;100200.56;5264501;28;20048;-81
2022/09/26 05:35:06;;;;;;;7.40;3.33;;;;;;;9.80;94.27;100190.97;5264189;28;20028;-81
2022/09/26 05:37:37;;;;;;;8.68;3.67;;;;;;;9.78;94.09;100197.97;5264472;28;20572;-80
2022/09/26 05:43:00;;;;;;;11.98;4.63;;;;;;;9.78;94.14;100194.50;5276933;28;20037;-81
2022/09/26 05:45:32;;;;;;;13.23;4.70;;;;;;;9.80;94.33;100188.38;5278120;28;20474;-80
2022/09/26 05:48:05;;;;;;;8.60;4.67;;;;;;;9.82;93.72;100189.22;5264405;28;20029;-81
2022/09/26 05:50:36;;;;;;;10.55;4.50;;;;;;;9.80;93.64;100185.75;5265576;28;20048;-81
2022/09/26 05:53:09;;;;;;;8.37;4.60;;;;;;;9.82;94.01;100197.03;5265040;28;20075;-82
2022/09/26 05:55:40;;;;;;;9.95;5.05;;;;;;;9.82;93.75;100197.03;5265099;28;20468;-82
2022/09/26 05:58:12;;;;;;;10.30;4.13;;;;;;;9.83;94.30;100190.06;5263584;28;20159;-82
2022/09/26 06:00:48;;;;;;;9.80;5.13;;;;;;;9.82;95.25;100189.22;5263959;28;20499;-80
2022/09/26 06:03:19;;;;;;;10.77;3.97;;;;;;;9.85;94.75;100188.28;5263845;28;20102;-81
2022/09/26 06:05:51;;;;;;;10.03;4.50;;;;;;;9.80;94.74;100177.94;5263282;28;20037;-81
2022/09/26 06:08:22;;;;;;;11.80;4.27;;;;;;;9.85;95.25;100175.25;5263113;28;20037;-81
2022/09/26 06:10:58;;;;;;;8.00;4.43;;;;;;;9.81;94.98;100169.28;5263170;28;20036;-80
2022/09/26 06:13:31;;;;;;;20.23;5.03;;;;;;;9.83;95.49;100162.28;5263406;28;20049;-81
2022/09/26 06:16:05;;;;;;;13.85;5.22;;;;;;;9.84;95.44;100156.19;5262896;28;20037;-81
2022/09/26 06:18:37;;;;;;;10.65;4.15;;;;;;;9.86;95.55;100154.41;5262837;28;20044;-81
2022/09/26 06:21:11;;;;;;;9.73;3.63;;;;;;;9.88;94.90;100138.75;5263663;28;20040;-83
2022/09/26 06:23:43;;;;;;;13.00;4.45;;;;;;;9.92;95.10;100126.53;5262878;28;20035;-80
2022/09/26 06:26:25;;;;;;;11.73;4.40;;;;;;;9.94;94.89;100120.41;5262632;28;20113;-80
2022/09/26 06:28:59;;;;;;;9.38;3.83;;;;;;;9.96;94.22;100112.56;5263289;28;20025;-81
2022/09/26 06:31:31;;;;;;;9.00;3.22;;;;;;;10.01;93.61;100105.50;5263877;28;20044;-82
2022/09/26 06:34:04;;;;;;;8.98;3.75;;;;;;;10.00;93.72;100090.81;5263408;28;20366;-82
2022/09/26 06:36:35;;;;;;;;;;;;;;;10.07;93.58;100094.97;5263718;28;20383;-81
2022/09/26 06:39:07;;;;;;;9.68;3.83;;;;;;;10.04;92.78;100087.22;5263334;28;19916;-80
2022/09/26 06:41:38;;;;;;;7.13;3.13;;;;;;;10.06;93.23;100085.44;5262426;28;20040;-81
2022/09/26 06:44:09;;;;;;;11.17;3.00;;;;;;;10.12;92.88;100090.50;5262836;28;20041;-82
2022/09/26 06:46:41;;;;;;;7.77;3.07;;;;;;;10.17;92.44;100078.25;5262957;28;20445;-82
2022/09/26 06:49:12;;;;;;;7.73;2.93;;;;;;;10.24;92.44;100073.78;5262778;28;20384;-81
2022/09/26 06:51:47;;;;;;;13.67;3.67;;;;;;;10.28;91.86;100059.78;5263028;28;20044;-81
2022/09/26 06:54:19;;;;;;;11.20;2.72;;;;;;;10.26;91.12;100058.13;5262508;28;20025;-81
2022/09/26 06:56:50;;;;;;;14.47;2.83;;;;;;;10.32;91.53;100042.31;5262211;28;20036;-82
2022/09/26 06:59:22;;;;;;;5.37;2.83;;;;;;;10.35;91.61;100044.88;5262631;28;20039;-82
2022/09/26 07:01:53;;;;;;;10.80;3.47;;;;;;;10.37;91.53;100043.13;5262747;28;20062;-81
2022/09/26 07:04:26;;;;;;;6.87;3.17;;;;;;;10.42;91.59;100040.38;5262347;28;20064;-81
2022/09/26 07:06:58;;;;;;;;;;;;;;;10.55;90.93;100041.81;5262995;28;20025;-82
2022/09/26 07:09:30;;;;;;;8.38;2.53;;;;;;;10.57;91.04;100034.81;5262629;28;19912;-81
2022/09/26 07:12:01;;;;;;;4.43;2.47;;;;;;;10.57;89.85;100027.00;5262877;28;20120;-81
2022/09/26 07:14:32;;;;;;;11.43;2.53;;;;;;;10.60;89.70;100023.47;5261332;28;20128;-81
2022/09/26 07:17:04;;;;;;;6.30;2.30;;;;;;;10.59;89.73;100012.16;5262766;28;20461;-81
2022/09/26 07:19:35;;;;;;;7.83;2.40;;;;;;;10.60;89.77;100011.28;5262631;28;20036;-81
2022/09/26 07:22:07;;;;;;;7.73;2.20;;;;;;;10.63;89.93;99992.13;5262491;28;20037;-81
2022/09/26 07:24:38;;;;;;;7.15;2.90;;;;;;;10.65;89.78;99998.13;5262491;28;20029;-81
2022/09/26 07:27:10;;;;;;;6.03;2.47;;;;;;;10.62;89.34;99996.44;5262252;28;20048;-82
2022/09/26 07:29:43;;;;;;;10.00;2.40;;;;;;;10.63;89.55;99997.31;5266311;28;20412;-82
2022/09/26 07:32:14;;;;;;;8.35;2.88;;;;;;;10.63;89.36;99995.56;5267360;28;20017;-83
2022/09/26 07:34:46;;;;;;;8.63;2.87;;;;;;;10.63;89.23;99989.50;5273073;28;20055;-81
2022/09/26 07:37:18;;;;;;;7.25;2.28;;;;;;;10.65;89.19;99992.91;5288444;28;20073;-81
2022/09/26 07:39:49;;;;;;;6.17;3.00;;;;;;;10.68;90.09;99991.09;5280174;28;20036;-81
2022/09/26 07:42:21;;;;;;;7.40;3.13;;;;;;;10.69;89.35;99995.41;5267159;28;20412;-81
2022/09/26 07:44:52;;;;;;;7.80;2.53;;;;;;;10.76;89.28;99990.88;5266646;28;20036;-81
2022/09/26 07:50:14;;;;;;;8.50;2.47;;;;;;;10.81;89.36;99983.78;5266103;28;20032;-82
2022/09/26 07:52:47;;;;;;;8.70;3.30;;;;;;;10.80;89.29;99983.84;5265241;28;20487;-81
2022/09/26 07:55:23;;;;;;;7.75;2.63;;;;;;;10.86;89.78;99991.50;5264661;28;20083;-81
2022/09/26 07:57:55;;;;;;;7.28;2.80;;;;;;;10.85;89.62;99976.75;5265992;28;20476;-81
2022/09/26 08:00:29;;;;;;;4.93;2.53;;;;;;;10.94;90.02;99977.34;5265366;28;20044;-79
2022/09/26 08:03:00;;;;;;;8.25;2.67;;;;;;;10.95;89.00;99966.03;5265728;28;20118;-83
2022/09/26 08:05:31;;;;;;;8.30;3.17;;;;;;;11.02;88.93;99960.66;5264602;28;20064;-82
2022/09/26 08:08:03;;;;;;;6.70;3.13;;;;;;;11.04;88.71;99964.06;5265768;28;20134;-83
2022/09/26 08:10:35;;;;;;;6.75;2.95;;;;;;;11.00;88.17;99955.47;5265692;28;20029;-81
2022/09/26 08:13:06;;;;;;;7.87;3.10;;;;;;;10.98;88.68;99956.41;5265672;28;20096;-81
2022/09/26 08:15:37;;;;;;;8.07;2.83;;;;;;;10.94;89.15;99943.44;5265471;28;20056;-80
2022/09/26 08:18:09;;;;;;;6.17;2.80;;;;;;;10.99;89.91;99950.31;5265781;28;20448;-81
2022/09/26 08:20:42;;;;;;;11.97;2.37;;;;;;;11.00;89.76;99946.81;5265660;28;20040;-81
2022/09/26 08:23:15;;;;;;;6.90;3.03;;;;;;;11.00;89.76;99968.50;5264500;28;20029;-80
2022/09/26 08:25:46;;;;;;;6.25;2.58;;;;;;;11.02;90.20;99950.22;5265961;28;20036;-80
2022/09/26 08:28:17;;;;;;;6.37;2.90;;;;;;;11.06;89.50;99952.69;5266702;28;20086;-79
2022/09/26 08:30:49;;;;;;;9.60;3.77;;;;;;;10.99;89.90;99950.31;5265131;28;20032;-83
2022/09/26 08:33:22;;;;;;;9.17;3.43;;;;;;;10.98;90.17;99940.75;5277696;28;20029;-79
2022/09/26 08:35:53;;;;;;;4.82;2.30;;;;;;;10.99;90.33;99938.09;5288882;28;20040;-82
2022/09/26 08:38:26;;;;;;;7.40;2.70;;;;;;;10.99;90.32;99930.28;5265230;28;20035;-82
2022/09/26 08:41:12;;;;;;;9.57;3.10;;;;;;;10.98;90.67;99944.25;5265369;28;20021;-82
2022/09/26 08:44:02;;;;;;;6.85;2.60;;;;;;;11.09;90.55;99936.09;5265465;28;20516;-82
2022/09/26 08:46:58;;;;;;;6.60;3.17;;;;;;;11.14;90.79;99931.63;5265301;28;20033;-83
2022/09/26 08:49:49;;;;;;;9.05;3.00;;;;;;;11.20;90.00;99936.63;5265792;28;20075;-82
2022/09/26 08:52:49;;;;;;;8.07;2.40;;;;;;;11.30;89.70;99927.66;5265442;28;20052;-83
2022/09/26 08:55:31;;;;;;;9.15;2.53;;;;;;;11.34;89.44;99922.34;5261492;28;20037;-82
2022/09/26 08:58:14;;;;;;;7.90;3.10;;;;;;;11.30;90.10;99919.84;5263808;28;20044;-82
2022/09/26 09:00:50;;;;;;;7.65;2.83;;;;;;;11.35;89.31;99917.09;5264547;28;20025;-82
2022/09/26 09:03:30;;;;;;;9.63;2.83;;;;;;;11.41;89.77;99926.47;5265520;28;20460;-82
2022/09/26 09:06:06;;;;;;;6.47;3.03;;;;;;;11.36;89.30;99917.94;5265286;28;20021;-82
2022/09/26 09:08:41;;;;;;;8.52;2.88;;;;;;;11.41;90.02;99916.03;5264637;28;20029;-83
2022/09/26 09:11:43;;;;;;;5.53;2.90;;;;;;;11.47;89.68;99921.06;5264793;28;20029;-82
2022/09/26 09:14:40;;;;;;;9.43;2.65;;;;;;;11.55;90.26;99921.69;5264348;28;20053;-83
2022/09/26 09:17:14;;;;;;;9.25;3.03;;;;;;;11.54;90.09;99901.69;5264953;28;20456;-82
2022/09/26 09:20:00;;;;;;;6.93;2.50;;;;;;;11.56;91.46;99905.13;5263242;28;20041;-82
2022/09/26 09:22:46;;;;;;;7.80;3.30;;;;;;;11.70;93.05;99901.25;5264495;28;20100;-82
2022/09/26 09:25:28;;;;;;;8.73;3.33;;;;;;;11.70;92.46;99890.78;5264175;28;20116;-82
2022/09/26 09:28:26;;;;;;;13.90;3.10;;;;;;;11.74;92.66;99887.19;5265606;28;20033;-83
2022/09/26 09:31:01;;;;;;;8.20;2.75;;;;;;;11.45;94.34;99876.75;5283347;28;20039;-79
2022/09/26 09:33:38;;;;;;;12.30;3.25;;;;;;;11.27;96.79;99878.19;5274605;28;20067;-81
2022/09/26 09:36:13;;;;;;;10.25;4.53;;;;;;;11.14;99.00;99866.41;5264215;28;20079;-79
2022/09/26 09:38:48;;;;;;;9.43;3.42;;;;;;;11.02;100.00;99864.16;5264410;28;20033;-79
2022/09/26 09:41:30;;;;;;;9.05;3.70;;;;;;;10.97;100.00;99855.63;5263781;28;20059;-79
2022/09/26 09:44:36;;;;;;;7.65;3.22;;;;;;;10.91;100.00;99857.47;5264375;28;20037;-79
2022/09/26 09:47:15;;;;;;;7.82;3.53;;;;;;;10.81;100.00;99843.03;5263667;28;20032;-78
2022/09/26 09:49:48;;;;;;;10.13;4.28;;;;;;;10.77;100.00;99846.63;5263148;28;20043;-77
2022/09/26 09:52:25;;;;;;;8.48;4.13;;;;;;;10.88;100.00;99838.47;5263734;28;20044;-78
2022/09/26 09:55:22;;;;;;;11.32;4.18;;;;;;;10.86;100.00;99822.88;5263829;28;20107;-77
2022/09/26 09:57:56;;;;;;;9.63;4.28;;;;;;;10.88;100.00;99826.31;5263438;28;20032;-76
2022/09/26 10:00:28;;;;;;;9.57;3.80;;;;;;;10.80;100.00;99817.84;5263890;28;20036;-79
2022/09/26 10:03:21;;;;;;;14.20;3.57;;;;;;;10.87;100.00;99816.78;5263857;28;20033;-78
2022/09/26 10:05:59;;;;;;;11.98;4.40;;;;;;;10.91;100.00;99807.94;5263234;28;20263;-79
2022/09/26 10:08:36;;;;;;;10.20;3.60;;;;;;;11.03;100.00;99809.34;5263195;28;20044;-76
2022/09/26 10:11:28;;;;;;;9.55;3.80;;;;;;;11.02;100.00;99805.03;5263823;28;20033;-77
2022/09/26 10:14:05;;;;;;;6.47;3.40;;;;;;;10.95;100.00;99796.53;5263462;28;20053;-77
2022/09/26 10:17:09;;;;;;;12.15;4.90;;;;;;;10.99;100.00;99815.53;5263278;28;20263;-77
2022/09/26 10:19:42;;;;;;;;;;;;;;;11.04;100.00;99794.53;5263658;28;20036;-78
2022/09/26 10:22:43;;;;;;;8.27;3.75;;;;;;;11.05;100.00;99785.84;5263061;28;19913;-76
2022/09/26 10:25:20;;;;;;;9.20;3.85;;;;;;;11.11;100.00;99783.88;5260722;28;20037;-76
2022/09/26 10:27:56;;;;;;;8.93;3.80;;;;;;;11.01;100.00;99787.69;5262438;28;20041;-77
2022/09/26 10:30:32;;;;;;;7.65;3.85;;;;;;;10.91;100.00;99768.84;5263400;28;20056;-77
2022/09/26 10:33:04;;;;;;;10.55;4.50;;;;;;;10.95;100.00;99772.22;5263543;28;20107;-78
2022/09/26 10:35:45;;;;;;;13.00;4.00;;;;;;;10.83;100.00;99776.03;5261353;28;20032;-78
2022/09/26 10:38:28;;;;;;;8.70;3.75;;;;;;;10.83;100.00;99767.38;5262748;28;20029;-78
2022/09/26 10:41:00;;;;;;;12.02;4.03;;;;;;;10.79;100.00;99769.22;5263034;28;20041;-78
2022/09/26 10:43:36;;;;;;;10.85;3.90;;;;;;;10.84;100.00;99769.09;5262677;28;20057;-77
2022/09/26 10:46:12;;;;;;;8.68;3.65;;;;;;;10.76;100.00;99770.16;5263370;28;20111;-79
2022/09/26 10:48:50;;;;;;;10.70;4.55;;;;;;;10.74;100.00;99766.75;5262484;28;20029;-80
2022/09/26 10:51:47;;;;;;;10.38;3.70;;;;;;;10.79;100.00;99766.63;5263057;28;20025;-78
2022/09/26 10:54:22;;;;;;;7.78;4.22;;;;;;;10.77;100.00;99763.22;5262764;28;20025;-78
2022/09/26 10:56:57;;;;;;;9.82;4.57;;;;;;;10.72;100.00;99752.03;5262619;28;20035;-78
2022/09/26 10:59:33;;;;;;;7.78;4.13;;;;;;;10.77;100.00;99748.41;5262178;28;20037;-79
2022/09/26 11:02:12;;;;;;;7.55;4.60;;;;;;;10.78;100.00;99749.25;5261476;28;20492;-77
2022/09/26 11:07:42;;;;;;;8.90;4.45;;;;;;;10.83;100.00;99751.72;5263231;28;20049;-77
2022/09/26 11:10:22;;;;;;;10.25;4.90;;;;;;;10.82;100.00;99748.28;5262888;28;20111;-77
2022/09/26 11:13:14;;;;;;;9.85;4.35;;;;;;;10.81;100.00;99743.97;5261375;28;20411;-78
2022/09/26 11:16:00;;;;;;;11.40;5.18;;;;;;;10.86;100.00;99744.66;5260815;28;20029;-78
2022/09/26 11:18:50;;;;;;;14.48;4.78;;;;;;;10.86;100.00;99729.03;5262306;28;20082;-78
2022/09/26 11:21:48;;;;;;;7.90;4.22;;;;;;;10.79;100.00;99724.91;5262639;28;20036;-77
2022/09/26 11:24:41;;;;;;;9.10;4.88;;;;;;;10.83;100.00;99726.50;5263463;28;20108;-76
2022/09/26 11:27:18;;;;;;;;;;;;;;;10.79;100.00;99737.06;5264352;28;20124;-77
2022/09/26 11:30:12;;;;;;;5.95;4.25;;;;;;;10.83;100.00;99723.91;5261956;28;19958;-77
2022/09/26 11:32:47;;;;;;;10.02;4.65;;;;;;;10.77;100.00;99717.13;5262453;28;20465;-77
2022/09/26 11:35:46;;;;;;;10.43;4.60;;;;;;;10.67;100.00;99715.69;5263099;28;20033;-78
2022/09/26 11:38:45;;;;;;;10.30;4.88;;;;;;;10.66;100.00;99713.13;5262381;28;20409;-77
2022/09/26 11:41:37;;;;;;;12.60;4.85;;;;;;;10.73;100.00;99723.31;5262066;28;20072;-77
2022/09/26 11:44:47;;;;;;;11.32;4.72;;;;;;;10.69;100.00;99718.25;5262239;28;20460;-76
2022/09/26 11:47:35;;;;;;;8.73;4.50;;;;;;;10.63;100.00;99721.91;5262367;28;20144;-77
2022/09/26 11:50:28;;;;;;;9.65;4.90;;;;;;;10.68;100.00;99706.13;5262730;28;20032;-77
2022/09/26 11:53:17;;;;;;;7.32;4.20;;;;;;;10.66;100.00;99705.31;5262772;28;20029;-79
2022/09/26 11:56:17;;;;;;;7.93;4.15;;;;;;;10.66;100.00;99710.53;5262464;28;20028;-78
2022/09/26 11:59:30;;;;;;;10.10;4.13;;;;;;;10.66;100.00;99702.69;5244469;28;20481;-79
2022/09/26 12:02:31;;;;;;;8.55;4.32;;;;;;;10.67;100.00;99710.47;5262777;28;20514;-78
2022/09/26 12:05:12;;;;;;;7.05;4.00;;;;;;;10.68;100.00;99700.94;5262515;28;20036;-78
2022/09/26 12:07:59;;;;;;;14.52;5.00;;;;;;;10.65;100.00;99701.00;5261157;28;20068;-81
2022/09/26 12:10:48;;;;;;;6.90;3.60;;;;;;;10.67;100.00;99705.25;5261022;28;20064;-79
2022/09/26 12:13:52;;;;;;;10.73;4.00;;;;;;;10.71;100.00;99691.25;5263092;28;20530;-78
2022/09/26 12:16:34;;;;;;;6.57;3.97;;;;;;;10.75;100.00;99699.81;5266189;28;20128;-78
2022/09/26 12:19:15;;;;;;;12.98;3.90;;;;;;;10.69;100.00;99694.78;5266958;28;20461;-79
2022/09/26 12:22:30;;;;;;;10.23;4.75;;;;;;;10.70;100.00;99680.88;5276164;28;20033;-78
2022/09/26 12:25:06;;;;;;;8.63;4.45;;;;;;;10.67;100.00;99704.41;5265853;28;20033;-80
2022/09/26 12:27:58;;;;;;;8.57;3.70;;;;;;;10.64;100.00;99688.88;5266338;28;20041;-81